Stepney, Connecticut
Current Conditions -  °F | °C
As of 12:50 PM on Monday 24 Nov 2014 (Local Time) from KOXC Reporting Station
Haze Haze  
Wind Chill: 63°   Ceiling: 600
Heat Index: 63°   Visibility: 6mi
Dew Point: 57°   Wind: 14mph
Humidity: 82%   Direction: 210°SSW
Pressure: 29.63"   Gusts: 21mph
Location:  41.3375°N, 73.2254°W
Report Text: KOXC 241750Z 21012G18KT 190V250 6SM BR BKN006 OVC013 17/14 A2963
Loading
Personal Weather Stations






























Interactive Weather Map New forecast layout! Learn more

10-Day Weather Forecast

Advertisements
Track Severe Weather on mobile